sensor_id;sensor_type;location;lat;lon;timestamp;temperature;humidity
21568;DHT22;10944;42.590;12.630;2022-08-19T00:00:28;25.00;99.90
21568;DHT22;10944;42.590;12.630;2022-08-19T00:02:54;25.00;99.90
21568;DHT22;10944;42.590;12.630;2022-08-19T00:05:21;25.10;99.90
21568;DHT22;10944;42.590;12.630;2022-08-19T00:07:48;25.10;99.90
21568;DHT22;10944;42.590;12.630;2022-08-19T00:10:15;24.90;99.90
21568;DHT22;10944;42.590;12.630;2022-08-19T00:12:42;24.90;99.90
21568;DHT22;10944;42.590;12.630;2022-08-19T00:15:11;24.90;99.90
21568;DHT22;10944;42.590;12.630;2022-08-19T00:17:43;24.80;99.90
21568;DHT22;10944;42.590;12.630;2022-08-19T00:20:12;24.60;99.90
21568;DHT22;10944;42.590;12.630;2022-08-19T00:22:39;24.50;99.90
21568;DHT22;10944;42.590;12.630;2022-08-19T00:25:07;24.40;99.90
21568;DHT22;10944;42.590;12.630;2022-08-19T00:27:34;24.40;99.90
21568;DHT22;10944;42.590;12.630;2022-08-19T00:30:00;24.40;99.90
21568;DHT22;10944;42.590;12.630;2022-08-19T00:32:27;24.30;99.90
21568;DHT22;10944;42.590;12.630;2022-08-19T00:34:53;24.40;99.90
21568;DHT22;10944;42.590;12.630;2022-08-19T00:37:23;24.40;99.90
21568;DHT22;10944;42.590;12.630;2022-08-19T00:39:51;24.40;99.90
21568;DHT22;10944;42.590;12.630;2022-08-19T00:42:18;24.40;99.90
21568;DHT22;10944;42.590;12.630;2022-08-19T00:44:49;24.40;99.90
21568;DHT22;10944;42.590;12.630;2022-08-19T00:47:16;24.30;99.90
21568;DHT22;10944;42.590;12.630;2022-08-19T00:49:45;24.20;99.90
21568;DHT22;10944;42.590;12.630;2022-08-19T00:52:23;24.20;99.90
21568;DHT22;10944;42.590;12.630;2022-08-19T00:54:51;24.10;99.90
21568;DHT22;10944;42.590;12.630;2022-08-19T00:57:21;24.10;99.90
21568;DHT22;10944;42.590;12.630;2022-08-19T00:59:51;24.00;99.90
21568;DHT22;10944;42.590;12.630;2022-08-19T01:02:18;24.00;99.90
21568;DHT22;10944;42.590;12.630;2022-08-19T01:04:44;24.00;99.90
21568;DHT22;10944;42.590;12.630;2022-08-19T01:07:10;23.80;99.90
21568;DHT22;10944;42.590;12.630;2022-08-19T01:09:36;23.90;99.90
21568;DHT22;10944;42.590;12.630;2022-08-19T01:12:02;23.80;99.90
21568;DHT22;10944;42.590;12.630;2022-08-19T01:14:29;23.80;99.90
21568;DHT22;10944;42.590;12.630;2022-08-19T01:16:55;23.90;99.90
21568;DHT22;10944;42.590;12.630;2022-08-19T01:19:29;23.70;99.90
21568;DHT22;10944;42.590;12.630;2022-08-19T01:22:04;23.50;99.90
21568;DHT22;10944;42.590;12.630;2022-08-19T01:24:31;23.60;99.90
21568;DHT22;10944;42.590;12.630;2022-08-19T01:26:58;23.60;99.90
21568;DHT22;10944;42.590;12.630;2022-08-19T01:29:23;23.50;99.90
21568;DHT22;10944;42.590;12.630;2022-08-19T01:31:49;23.50;99.90
21568;DHT22;10944;42.590;12.630;2022-08-19T01:34:18;23.50;99.90
21568;DHT22;10944;42.590;12.630;2022-08-19T01:36:46;23.50;99.90
21568;DHT22;10944;42.590;12.630;2022-08-19T01:39:15;23.40;99.90
21568;DHT22;10944;42.590;12.630;2022-08-19T01:41:41;23.50;99.90
21568;DHT22;10944;42.590;12.630;2022-08-19T01:44:09;23.50;99.90
21568;DHT22;10944;42.590;12.630;2022-08-19T01:46:36;23.50;99.90
21568;DHT22;10944;42.590;12.630;2022-08-19T01:49:03;23.50;99.90
21568;DHT22;10944;42.590;12.630;2022-08-19T01:51:29;23.50;99.90
21568;DHT22;10944;42.590;12.630;2022-08-19T01:53:56;23.40;99.90
21568;DHT22;10944;42.590;12.630;2022-08-19T01:56:23;23.50;99.90
21568;DHT22;10944;42.590;12.630;2022-08-19T01:58:53;23.30;99.90
21568;DHT22;10944;42.590;12.630;2022-08-19T02:01:19;23.40;99.90
21568;DHT22;10944;42.590;12.630;2022-08-19T02:03:45;23.40;99.90
21568;DHT22;10944;42.590;12.630;2022-08-19T02:06:11;23.40;99.90
21568;DHT22;10944;42.590;12.630;2022-08-19T02:08:39;23.40;99.90
21568;DHT22;10944;42.590;12.630;2022-08-19T02:11:06;23.40;99.90
21568;DHT22;10944;42.590;12.630;2022-08-19T02:13:33;23.30;99.90
21568;DHT22;10944;42.590;12.630;2022-08-19T02:15:59;23.30;99.90
21568;DHT22;10944;42.590;12.630;2022-08-19T02:18:25;23.30;99.90
21568;DHT22;10944;42.590;12.630;2022-08-19T02:20:52;23.20;99.90
21568;DHT22;10944;42.590;12.630;2022-08-19T02:23:18;23.20;99.90
21568;DHT22;10944;42.590;12.630;2022-08-19T02:25:46;23.20;99.90
21568;DHT22;10944;42.590;12.630;2022-08-19T02:28:12;23.20;99.90
21568;DHT22;10944;42.590;12.630;2022-08-19T02:30:38;23.10;99.90
21568;DHT22;10944;42.590;12.630;2022-08-19T02:33:05;23.10;99.90
21568;DHT22;10944;42.590;12.630;2022-08-19T02:35:31;23.10;99.90
21568;DHT22;10944;42.590;12.630;2022-08-19T02:37:57;23.20;99.90
21568;DHT22;10944;42.590;12.630;2022-08-19T02:40:47;23.20;99.90
21568;DHT22;10944;42.590;12.630;2022-08-19T02:43:14;23.10;99.90
21568;DHT22;10944;42.590;12.630;2022-08-19T02:45:41;23.10;99.90
21568;DHT22;10944;42.590;12.630;2022-08-19T02:48:07;23.10;99.90
21568;DHT22;10944;42.590;12.630;2022-08-19T02:50:39;23.10;99.90
21568;DHT22;10944;42.590;12.630;2022-08-19T02:53:05;23.10;99.90
21568;DHT22;10944;42.590;12.630;2022-08-19T02:55:32;23.00;99.90
21568;DHT22;10944;42.590;12.630;2022-08-19T02:57:58;23.00;99.90
21568;DHT22;10944;42.590;12.630;2022-08-19T03:00:25;23.00;99.90
21568;DHT22;10944;42.590;12.630;2022-08-19T03:02:52;23.00;99.90
21568;DHT22;10944;42.590;12.630;2022-08-19T03:05:18;22.90;99.90
21568;DHT22;10944;42.590;12.630;2022-08-19T03:07:43;23.00;99.90
21568;DHT22;10944;42.590;12.630;2022-08-19T03:10:09;23.00;99.90
21568;DHT22;10944;42.590;12.630;2022-08-19T03:12:37;23.10;99.90
21568;DHT22;10944;42.590;12.630;2022-08-19T03:15:07;23.10;99.90
21568;DHT22;10944;42.590;12.630;2022-08-19T03:17:34;23.00;99.90
21568;DHT22;10944;42.590;12.630;2022-08-19T03:20:00;23.10;99.90
21568;DHT22;10944;42.590;12.630;2022-08-19T03:22:26;23.10;99.90
21568;DHT22;10944;42.590;12.630;2022-08-19T03:24:52;23.20;99.90
21568;DHT22;10944;42.590;12.630;2022-08-19T03:27:19;23.10;99.90
21568;DHT22;10944;42.590;12.630;2022-08-19T03:29:44;23.00;99.90
21568;DHT22;10944;42.590;12.630;2022-08-19T03:32:11;23.10;99.90
21568;DHT22;10944;42.590;12.630;2022-08-19T03:34:38;23.20;99.90
21568;DHT22;10944;42.590;12.630;2022-08-19T03:37:09;23.20;99.90
21568;DHT22;10944;42.590;12.630;2022-08-19T03:39:36;23.20;99.90
21568;DHT22;10944;42.590;12.630;2022-08-19T03:42:03;23.10;99.90
21568;DHT22;10944;42.590;12.630;2022-08-19T03:44:29;23.00;99.90
21568;DHT22;10944;42.590;12.630;2022-08-19T03:46:58;23.00;99.90
21568;DHT22;10944;42.590;12.630;2022-08-19T03:49:27;23.10;99.90
21568;DHT22;10944;42.590;12.630;2022-08-19T03:51:54;23.10;99.90
21568;DHT22;10944;42.590;12.630;2022-08-19T03:54:22;23.10;99.90
21568;DHT22;10944;42.590;12.630;2022-08-19T03:56:52;23.00;99.90
21568;DHT22;10944;42.590;12.630;2022-08-19T03:59:27;23.00;99.90
21568;DHT22;10944;42.590;12.630;2022-08-19T04:01:55;22.90;99.90
21568;DHT22;10944;42.590;12.630;2022-08-19T04:04:22;22.90;99.90
21568;DHT22;10944;42.590;12.630;2022-08-19T04:06:49;22.80;99.90
21568;DHT22;10944;42.590;12.630;2022-08-19T04:09:16;22.70;99.90
21568;DHT22;10944;42.590;12.630;2022-08-19T04:11:45;22.70;99.90
21568;DHT22;10944;42.590;12.630;2022-08-19T04:14:14;22.70;99.90
21568;DHT22;10944;42.590;12.630;2022-08-19T04:16:40;22.60;99.90
21568;DHT22;10944;42.590;12.630;2022-08-19T04:19:06;22.50;99.90
21568;DHT22;10944;42.590;12.630;2022-08-19T04:21:32;22.50;99.90
21568;DHT22;10944;42.590;12.630;2022-08-19T04:23:58;22.60;99.90
21568;DHT22;10944;42.590;12.630;2022-08-19T04:26:27;22.60;99.90
21568;DHT22;10944;42.590;12.630;2022-08-19T04:28:53;22.60;99.90
21568;DHT22;10944;42.590;12.630;2022-08-19T04:31:22;22.60;99.90
21568;DHT22;10944;42.590;12.630;2022-08-19T04:33:52;22.60;99.90
21568;DHT22;10944;42.590;12.630;2022-08-19T04:36:25;22.50;99.90
21568;DHT22;10944;42.590;12.630;2022-08-19T04:38:54;22.60;99.90
21568;DHT22;10944;42.590;12.630;2022-08-19T04:41:20;22.60;99.90
21568;DHT22;10944;42.590;12.630;2022-08-19T04:44:05;22.50;99.90
21568;DHT22;10944;42.590;12.630;2022-08-19T04:46:31;22.70;99.90
21568;DHT22;10944;42.590;12.630;2022-08-19T04:49:00;22.70;99.90
21568;DHT22;10944;42.590;12.630;2022-08-19T04:51:26;22.70;99.90
21568;DHT22;10944;42.590;12.630;2022-08-19T04:53:52;22.80;99.90
21568;DHT22;10944;42.590;12.630;2022-08-19T04:56:19;22.90;99.90
21568;DHT22;10944;42.590;12.630;2022-08-19T04:58:53;22.90;99.90
21568;DHT22;10944;42.590;12.630;2022-08-19T05:01:26;22.90;99.90
21568;DHT22;10944;42.590;12.630;2022-08-19T05:03:53;23.00;99.90
21568;DHT22;10944;42.590;12.630;2022-08-19T05:06:20;23.00;99.90
21568;DHT22;10944;42.590;12.630;2022-08-19T05:08:47;23.20;99.90
21568;DHT22;10944;42.590;12.630;2022-08-19T05:11:14;23.20;99.90
21568;DHT22;10944;42.590;12.630;2022-08-19T05:13:45;23.20;99.90
21568;DHT22;10944;42.590;12.630;2022-08-19T05:16:12;23.10;99.90
21568;DHT22;10944;42.590;12.630;2022-08-19T05:18:39;23.10;99.90
21568;DHT22;10944;42.590;12.630;2022-08-19T05:21:24;23.00;99.90
21568;DHT22;10944;42.590;12.630;2022-08-19T05:24:08;23.00;99.90
21568;DHT22;10944;42.590;12.630;2022-08-19T05:26:36;23.00;99.90
21568;DHT22;10944;42.590;12.630;2022-08-19T05:29:02;23.10;99.90
21568;DHT22;10944;42.590;12.630;2022-08-19T05:31:29;23.30;99.90
21568;DHT22;10944;42.590;12.630;2022-08-19T05:33:55;23.30;99.90
21568;DHT22;10944;42.590;12.630;2022-08-19T05:36:25;23.40;99.90
21568;DHT22;10944;42.590;12.630;2022-08-19T05:38:51;23.40;99.90
21568;DHT22;10944;42.590;12.630;2022-08-19T05:41:19;23.50;99.90
21568;DHT22;10944;42.590;12.630;2022-08-19T05:43:45;23.50;99.90
21568;DHT22;10944;42.590;12.630;2022-08-19T05:46:17;23.50;99.90
21568;DHT22;10944;42.590;12.630;2022-08-19T05:48:44;23.70;99.90
21568;DHT22;10944;42.590;12.630;2022-08-19T05:51:10;24.00;99.90
21568;DHT22;10944;42.590;12.630;2022-08-19T05:53:36;24.10;99.90
21568;DHT22;10944;42.590;12.630;2022-08-19T05:56:14;24.30;99.90
21568;DHT22;10944;42.590;12.630;2022-08-19T05:58:42;24.40;99.90
21568;DHT22;10944;42.590;12.630;2022-08-19T06:01:13;24.50;99.90
21568;DHT22;10944;42.590;12.630;2022-08-19T06:33:10;24.90;99.90
21568;DHT22;10944;42.590;12.630;2022-08-19T06:35:40;26.10;99.90
21568;DHT22;10944;42.590;12.630;2022-08-19T06:38:06;26.10;99.90
21568;DHT22;10944;42.590;12.630;2022-08-19T06:40:31;26.00;99.90
21568;DHT22;10944;42.590;12.630;2022-08-19T06:42:57;25.80;99.90
21568;DHT22;10944;42.590;12.630;2022-08-19T06:45:25;25.60;99.90
21568;DHT22;10944;42.590;12.630;2022-08-19T06:47:52;25.50;99.90
21568;DHT22;10944;42.590;12.630;2022-08-19T06:50:24;25.80;99.90
21568;DHT22;10944;42.590;12.630;2022-08-19T06:52:50;25.80;99.90
21568;DHT22;10944;42.590;12.630;2022-08-19T06:55:16;26.00;99.90
21568;DHT22;10944;42.590;12.630;2022-08-19T06:57:42;26.20;99.90
21568;DHT22;10944;42.590;12.630;2022-08-19T07:00:12;26.20;99.90
21568;DHT22;10944;42.590;12.630;2022-08-19T07:02:42;26.30;99.90
21568;DHT22;10944;42.590;12.630;2022-08-19T07:05:08;26.40;99.90
21568;DHT22;10944;42.590;12.630;2022-08-19T07:07:34;26.50;99.90
21568;DHT22;10944;42.590;12.630;2022-08-19T07:10:00;26.60;99.90
21568;DHT22;10944;42.590;12.630;2022-08-19T07:12:28;26.60;99.90
21568;DHT22;10944;42.590;12.630;2022-08-19T07:14:57;26.70;99.90
21568;DHT22;10944;42.590;12.630;2022-08-19T07:17:23;26.70;99.90
21568;DHT22;10944;42.590;12.630;2022-08-19T07:19:48;26.80;99.90
21568;DHT22;10944;42.590;12.630;2022-08-19T07:22:15;27.00;99.90
21568;DHT22;10944;42.590;12.630;2022-08-19T07:24:42;27.20;99.90
21568;DHT22;10944;42.590;12.630;2022-08-19T07:27:08;27.30;99.90
21568;DHT22;10944;42.590;12.630;2022-08-19T07:29:36;27.30;99.90
21568;DHT22;10944;42.590;12.630;2022-08-19T07:32:03;27.40;99.90
21568;DHT22;10944;42.590;12.630;2022-08-19T07:34:30;27.40;99.90
21568;DHT22;10944;42.590;12.630;2022-08-19T07:36:57;27.60;99.90
21568;DHT22;10944;42.590;12.630;2022-08-19T07:39:26;27.70;99.90
21568;DHT22;10944;42.590;12.630;2022-08-19T07:41:53;27.80;99.90
21568;DHT22;10944;42.590;12.630;2022-08-19T07:44:20;28.00;99.90
21568;DHT22;10944;42.590;12.630;2022-08-19T07:46:50;28.00;99.90
21568;DHT22;10944;42.590;12.630;2022-08-19T07:49:17;27.90;99.90
21568;DHT22;10944;42.590;12.630;2022-08-19T07:51:47;28.00;99.90
21568;DHT22;10944;42.590;12.630;2022-08-19T07:54:13;28.30;99.90
21568;DHT22;10944;42.590;12.630;2022-08-19T07:56:39;28.50;99.90
21568;DHT22;10944;42.590;12.630;2022-08-19T07:59:05;28.90;99.90
21568;DHT22;10944;42.590;12.630;2022-08-19T08:01:31;28.60;99.10
21568;DHT22;10944;42.590;12.630;2022-08-19T08:03:57;28.50;99.50
21568;DHT22;10944;42.590;12.630;2022-08-19T08:06:42;28.50;99.50
21568;DHT22;10944;42.590;12.630;2022-08-19T08:09:32;28.70;99.30
21568;DHT22;10944;42.590;12.630;2022-08-19T08:12:09;28.90;98.80
21568;DHT22;10944;42.590;12.630;2022-08-19T08:14:42;29.00;98.30
21568;DHT22;10944;42.590;12.630;2022-08-19T08:17:10;29.20;97.90
21568;DHT22;10944;42.590;12.630;2022-08-19T08:19:36;29.20;98.20
21568;DHT22;10944;42.590;12.630;2022-08-19T08:22:03;29.30;96.40
21568;DHT22;10944;42.590;12.630;2022-08-19T08:24:31;29.40;97.00
21568;DHT22;10944;42.590;12.630;2022-08-19T08:26:58;29.30;96.00
21568;DHT22;10944;42.590;12.630;2022-08-19T08:29:29;29.20;96.80
21568;DHT22;10944;42.590;12.630;2022-08-19T08:31:55;29.30;96.50
21568;DHT22;10944;42.590;12.630;2022-08-19T08:34:21;29.60;96.70
21568;DHT22;10944;42.590;12.630;2022-08-19T08:36:47;29.70;96.00
21568;DHT22;10944;42.590;12.630;2022-08-19T08:39:16;29.60;95.70
21568;DHT22;10944;42.590;12.630;2022-08-19T08:47:16;29.90;95.10
21568;DHT22;10944;42.590;12.630;2022-08-19T08:54:55;30.00;94.70
21568;DHT22;10944;42.590;12.630;2022-08-19T08:57:29;29.70;95.60
21568;DHT22;10944;42.590;12.630;2022-08-19T09:00:00;29.60;95.90
21568;DHT22;10944;42.590;12.630;2022-08-19T09:02:29;29.60;95.70
21568;DHT22;10944;42.590;12.630;2022-08-19T09:04:55;29.60;95.20
21568;DHT22;10944;42.590;12.630;2022-08-19T09:08:26;29.40;95.50
21568;DHT22;10944;42.590;12.630;2022-08-19T09:10:31;29.60;95.30
21568;DHT22;10944;42.590;12.630;2022-08-19T09:15:34;29.30;95.20
21568;DHT22;10944;42.590;12.630;2022-08-19T09:18:03;29.40;95.20
21568;DHT22;10944;42.590;12.630;2022-08-19T09:20:30;29.30;94.30
21568;DHT22;10944;42.590;12.630;2022-08-19T09:22:57;29.10;94.20
21568;DHT22;10944;42.590;12.630;2022-08-19T09:25:24;28.90;94.40
21568;DHT22;10944;42.590;12.630;2022-08-19T09:27:51;28.70;95.80
21568;DHT22;10944;42.590;12.630;2022-08-19T09:30:25;28.20;97.90
21568;DHT22;10944;42.590;12.630;2022-08-19T09:32:52;27.40;98.80
21568;DHT22;10944;42.590;12.630;2022-08-19T09:35:22;26.70;99.90
21568;DHT22;10944;42.590;12.630;2022-08-19T09:37:49;26.40;99.90
21568;DHT22;10944;42.590;12.630;2022-08-19T09:40:15;26.20;99.90
21568;DHT22;10944;42.590;12.630;2022-08-19T09:42:42;25.90;99.90
21568;DHT22;10944;42.590;12.630;2022-08-19T09:45:09;25.80;99.90
21568;DHT22;10944;42.590;12.630;2022-08-19T09:47:36;25.70;99.90
21568;DHT22;10944;42.590;12.630;2022-08-19T09:50:08;25.70;99.90
21568;DHT22;10944;42.590;12.630;2022-08-19T09:52:34;26.00;99.90
21568;DHT22;10944;42.590;12.630;2022-08-19T09:55:06;26.30;99.90
21568;DHT22;10944;42.590;12.630;2022-08-19T09:57:32;26.60;99.50
21568;DHT22;10944;42.590;12.630;2022-08-19T09:59:58;26.80;99.80
21568;DHT22;10944;42.590;12.630;2022-08-19T10:02:24;26.70;98.90
21568;DHT22;10944;42.590;12.630;2022-08-19T10:04:50;26.50;99.50
21568;DHT22;10944;42.590;12.630;2022-08-19T10:07:34;26.50;99.90
21568;DHT22;10944;42.590;12.630;2022-08-19T10:10:01;26.50;99.90
21568;DHT22;10944;42.590;12.630;2022-08-19T10:12:26;26.50;99.90
21568;DHT22;10944;42.590;12.630;2022-08-19T10:14:52;26.90;99.90
21568;DHT22;10944;42.590;12.630;2022-08-19T10:17:19;27.10;99.90
21568;DHT22;10944;42.590;12.630;2022-08-19T10:19:45;27.40;99.90
21568;DHT22;10944;42.590;12.630;2022-08-19T10:22:11;27.60;99.10
21568;DHT22;10944;42.590;12.630;2022-08-19T10:24:39;27.60;99.40
21568;DHT22;10944;42.590;12.630;2022-08-19T10:27:05;27.60;98.40
21568;DHT22;10944;42.590;12.630;2022-08-19T10:29:31;27.80;97.20
21568;DHT22;10944;42.590;12.630;2022-08-19T10:32:00;28.00;96.90
21568;DHT22;10944;42.590;12.630;2022-08-19T10:34:27;28.20;96.20
21568;DHT22;10944;42.590;12.630;2022-08-19T10:36:54;28.30;95.70
21568;DHT22;10944;42.590;12.630;2022-08-19T10:39:20;28.70;96.00
21568;DHT22;10944;42.590;12.630;2022-08-19T10:41:46;29.00;95.30
21568;DHT22;10944;42.590;12.630;2022-08-19T10:44:12;29.20;95.50
21568;DHT22;10944;42.590;12.630;2022-08-19T10:46:41;29.20;94.00
21568;DHT22;10944;42.590;12.630;2022-08-19T10:49:10;28.80;94.90
21568;DHT22;10944;42.590;12.630;2022-08-19T10:51:38;28.40;95.60
21568;DHT22;10944;42.590;12.630;2022-08-19T10:54:22;28.00;95.80
21568;DHT22;10944;42.590;12.630;2022-08-19T10:56:48;27.80;95.90
21568;DHT22;10944;42.590;12.630;2022-08-19T10:59:22;27.80;95.30
21568;DHT22;10944;42.590;12.630;2022-08-19T11:01:49;28.10;95.70
21568;DHT22;10944;42.590;12.630;2022-08-19T11:04:17;28.70;95.60
21568;DHT22;10944;42.590;12.630;2022-08-19T11:06:47;29.60;95.10
21568;DHT22;10944;42.590;12.630;2022-08-19T11:09:15;30.20;94.30
21568;DHT22;10944;42.590;12.630;2022-08-19T11:11:42;30.20;92.70
21568;DHT22;10944;42.590;12.630;2022-08-19T11:14:12;29.60;93.70
21568;DHT22;10944;42.590;12.630;2022-08-19T11:16:40;29.10;94.60
21568;DHT22;10944;42.590;12.630;2022-08-19T11:19:07;28.80;94.60
21568;DHT22;10944;42.590;12.630;2022-08-19T11:21:41;29.00;95.00
21568;DHT22;10944;42.590;12.630;2022-08-19T11:24:10;29.60;94.40
21568;DHT22;10944;42.590;12.630;2022-08-19T11:26:37;29.50;94.00
21568;DHT22;10944;42.590;12.630;2022-08-19T11:29:04;29.30;94.40
21568;DHT22;10944;42.590;12.630;2022-08-19T11:31:33;28.90;94.10
21568;DHT22;10944;42.590;12.630;2022-08-19T11:34:03;28.90;94.10
21568;DHT22;10944;42.590;12.630;2022-08-19T11:36:30;29.20;95.00
21568;DHT22;10944;42.590;12.630;2022-08-19T11:38:57;29.70;94.40
21568;DHT22;10944;42.590;12.630;2022-08-19T11:41:23;30.10;93.30
21568;DHT22;10944;42.590;12.630;2022-08-19T11:43:50;30.30;93.40
21568;DHT22;10944;42.590;12.630;2022-08-19T11:46:20;30.60;93.40
21568;DHT22;10944;42.590;12.630;2022-08-19T11:48:46;30.90;92.50
21568;DHT22;10944;42.590;12.630;2022-08-19T11:51:17;31.00;91.90
21568;DHT22;10944;42.590;12.630;2022-08-19T11:53:44;30.50;91.90
21568;DHT22;10944;42.590;12.630;2022-08-19T11:56:14;30.10;91.30
21568;DHT22;10944;42.590;12.630;2022-08-19T11:58:40;29.90;91.80
21568;DHT22;10944;42.590;12.630;2022-08-19T12:01:10;30.00;92.00
21568;DHT22;10944;42.590;12.630;2022-08-19T12:03:37;30.40;92.40
21568;DHT22;10944;42.590;12.630;2022-08-19T12:06:11;30.30;92.10
21568;DHT22;10944;42.590;12.630;2022-08-19T12:08:42;30.10;92.40
21568;DHT22;10944;42.590;12.630;2022-08-19T12:11:09;29.90;92.70
21568;DHT22;10944;42.590;12.630;2022-08-19T12:13:36;29.70;92.90
21568;DHT22;10944;42.590;12.630;2022-08-19T12:16:08;29.60;93.50
21568;DHT22;10944;42.590;12.630;2022-08-19T12:18:38;29.50;93.60
21568;DHT22;10944;42.590;12.630;2022-08-19T12:21:10;29.10;93.60
21568;DHT22;10944;42.590;12.630;2022-08-19T12:23:39;29.00;92.80
21568;DHT22;10944;42.590;12.630;2022-08-19T12:26:05;29.20;92.90
21568;DHT22;10944;42.590;12.630;2022-08-19T12:28:31;29.50;92.60
21568;DHT22;10944;42.590;12.630;2022-08-19T12:30:57;29.40;92.20
21568;DHT22;10944;42.590;12.630;2022-08-19T12:33:23;29.40;92.20
21568;DHT22;10944;42.590;12.630;2022-08-19T12:35:50;29.20;92.00
21568;DHT22;10944;42.590;12.630;2022-08-19T12:38:17;29.10;92.70
21568;DHT22;10944;42.590;12.630;2022-08-19T12:40:46;29.00;92.70
21568;DHT22;10944;42.590;12.630;2022-08-19T12:43:12;29.00;93.20
21568;DHT22;10944;42.590;12.630;2022-08-19T12:45:39;28.90;92.30
21568;DHT22;10944;42.590;12.630;2022-08-19T12:48:05;28.50;93.00
21568;DHT22;10944;42.590;12.630;2022-08-19T12:50:31;28.20;93.30
21568;DHT22;10944;42.590;12.630;2022-08-19T12:52:57;27.80;93.30
21568;DHT22;10944;42.590;12.630;2022-08-19T12:55:23;27.70;93.70
21568;DHT22;10944;42.590;12.630;2022-08-19T12:57:50;27.60;94.00
21568;DHT22;10944;42.590;12.630;2022-08-19T13:00:19;27.10;94.30
21568;DHT22;10944;42.590;12.630;2022-08-19T13:02:48;26.80;94.70
21568;DHT22;10944;42.590;12.630;2022-08-19T13:05:19;26.80;96.50
21568;DHT22;10944;42.590;12.630;2022-08-19T13:07:47;26.60;95.80
21568;DHT22;10944;42.590;12.630;2022-08-19T13:10:16;26.60;96.40
21568;DHT22;10944;42.590;12.630;2022-08-19T13:12:45;26.50;95.50
21568;DHT22;10944;42.590;12.630;2022-08-19T13:15:13;26.40;95.90
21568;DHT22;10944;42.590;12.630;2022-08-19T13:17:41;26.40;95.90
21568;DHT22;10944;42.590;12.630;2022-08-19T13:20:10;26.60;95.90
21568;DHT22;10944;42.590;12.630;2022-08-19T13:22:38;26.50;96.00
21568;DHT22;10944;42.590;12.630;2022-08-19T13:25:07;26.40;96.10
21568;DHT22;10944;42.590;12.630;2022-08-19T13:27:33;26.40;96.10
21568;DHT22;10944;42.590;12.630;2022-08-19T13:30:00;26.40;96.10
21568;DHT22;10944;42.590;12.630;2022-08-19T13:32:44;26.10;97.50
21568;DHT22;10944;42.590;12.630;2022-08-19T13:35:28;25.20;99.90
21568;DHT22;10944;42.590;12.630;2022-08-19T13:37:54;24.40;99.90
21568;DHT22;10944;42.590;12.630;2022-08-19T13:40:22;23.80;99.90
21568;DHT22;10944;42.590;12.630;2022-08-19T13:42:50;23.40;99.90
21568;DHT22;10944;42.590;12.630;2022-08-19T13:45:20;23.20;99.90
21568;DHT22;10944;42.590;12.630;2022-08-19T13:47:47;22.90;99.90
21568;DHT22;10944;42.590;12.630;2022-08-19T13:50:16;22.60;99.90
21568;DHT22;10944;42.590;12.630;2022-08-19T13:52:43;22.30;99.90
21568;DHT22;10944;42.590;12.630;2022-08-19T13:55:10;21.60;99.90
21568;DHT22;10944;42.590;12.630;2022-08-19T13:57:37;21.50;99.90
21568;DHT22;10944;42.590;12.630;2022-08-19T14:00:14;21.30;99.90
21568;DHT22;10944;42.590;12.630;2022-08-19T14:15:16;21.00;99.90
21568;DHT22;10944;42.590;12.630;2022-08-19T14:17:43;20.60;99.90
21568;DHT22;10944;42.590;12.630;2022-08-19T14:20:12;20.50;99.90
21568;DHT22;10944;42.590;12.630;2022-08-19T14:22:40;20.50;99.90
21568;DHT22;10944;42.590;12.630;2022-08-19T14:25:09;20.30;99.90
21568;DHT22;10944;42.590;12.630;2022-08-19T14:27:37;20.30;99.90
21568;DHT22;10944;42.590;12.630;2022-08-19T14:30:05;20.00;99.90
21568;DHT22;10944;42.590;12.630;2022-08-19T14:32:32;20.00;99.90
21568;DHT22;10944;42.590;12.630;2022-08-19T14:34:58;20.00;99.90
21568;DHT22;10944;42.590;12.630;2022-08-19T14:37:24;19.90;99.90
21568;DHT22;10944;42.590;12.630;2022-08-19T14:39:50;20.00;99.90
21568;DHT22;10944;42.590;12.630;2022-08-19T14:42:17;20.00;99.90
21568;DHT22;10944;42.590;12.630;2022-08-19T14:44:43;19.80;99.90
21568;DHT22;10944;42.590;12.630;2022-08-19T14:47:09;19.80;99.90
21568;DHT22;10944;42.590;12.630;2022-08-19T14:49:35;19.80;99.90
21568;DHT22;10944;42.590;12.630;2022-08-19T14:52:01;19.90;99.90
21568;DHT22;10944;42.590;12.630;2022-08-19T14:54:28;19.90;99.90
21568;DHT22;10944;42.590;12.630;2022-08-19T14:56:54;20.10;99.90
21568;DHT22;10944;42.590;12.630;2022-08-19T14:59:20;20.10;99.90
21568;DHT22;10944;42.590;12.630;2022-08-19T15:01:46;20.10;99.90
21568;DHT22;10944;42.590;12.630;2022-08-19T15:04:11;20.00;99.90
21568;DHT22;10944;42.590;12.630;2022-08-19T15:06:37;20.10;99.90
21568;DHT22;10944;42.590;12.630;2022-08-19T15:09:04;20.20;99.90
21568;DHT22;10944;42.590;12.630;2022-08-19T15:11:29;20.20;99.90
21568;DHT22;10944;42.590;12.630;2022-08-19T15:13:58;20.30;99.90
21568;DHT22;10944;42.590;12.630;2022-08-19T15:16:25;20.30;99.90
21568;DHT22;10944;42.590;12.630;2022-08-19T15:18:57;20.50;99.90
21568;DHT22;10944;42.590;12.630;2022-08-19T15:21:24;20.70;99.90
21568;DHT22;10944;42.590;12.630;2022-08-19T15:23:51;20.70;99.90
21568;DHT22;10944;42.590;12.630;2022-08-19T15:26:18;20.90;99.90
21568;DHT22;10944;42.590;12.630;2022-08-19T15:28:44;20.80;99.90
21568;DHT22;10944;42.590;12.630;2022-08-19T15:31:11;20.80;99.90
21568;DHT22;10944;42.590;12.630;2022-08-19T15:33:39;20.80;99.90
21568;DHT22;10944;42.590;12.630;2022-08-19T15:36:07;21.00;99.90
21568;DHT22;10944;42.590;12.630;2022-08-19T15:38:33;21.30;99.90
21568;DHT22;10944;42.590;12.630;2022-08-19T15:41:01;21.50;99.90
21568;DHT22;10944;42.590;12.630;2022-08-19T15:43:47;21.50;99.90
21568;DHT22;10944;42.590;12.630;2022-08-19T15:46:18;21.80;99.90
21568;DHT22;10944;42.590;12.630;2022-08-19T15:48:46;21.90;99.90
21568;DHT22;10944;42.590;12.630;2022-08-19T15:51:12;21.90;99.90
21568;DHT22;10944;42.590;12.630;2022-08-19T15:53:39;22.00;99.90
21568;DHT22;10944;42.590;12.630;2022-08-19T15:56:07;22.20;99.90
21568;DHT22;10944;42.590;12.630;2022-08-19T15:58:33;22.40;99.90
21568;DHT22;10944;42.590;12.630;2022-08-19T16:01:18;22.40;99.90
21568;DHT22;10944;42.590;12.630;2022-08-19T16:03:59;22.40;99.90
21568;DHT22;10944;42.590;12.630;2022-08-19T16:06:46;22.40;99.90
21568;DHT22;10944;42.590;12.630;2022-08-19T16:09:13;22.50;99.90
21568;DHT22;10944;42.590;12.630;2022-08-19T16:11:40;22.70;99.90
21568;DHT22;10944;42.590;12.630;2022-08-19T16:14:07;22.90;99.90
21568;DHT22;10944;42.590;12.630;2022-08-19T16:16:34;23.10;99.90